Time;durP1;ratioP1;P1;durP2;ratioP2;P2;SDS_P1;SDS_P2;PMS_P1;PMS_P2;Temp;Humidity;BMP_temperature;BMP_pressure;BME280_temperature;BME280_humidity;BME280_pressure;Samples;Min_cycle;Max_cycle;Signal;HPM_P1;HPM_P2
2022/01/31 00:03:13;;;;;;;8.88;2.88;;;20.40;68.50;;;;;;7819317;28;20197;-57
2022/01/31 00:06:58;;;;;;;7.50;2.47;;;20.40;68.40;;;;;;7823131;28;20178;-55
2022/01/31 00:10:45;;;;;;;8.43;2.90;;;20.40;68.40;;;;;;7837277;28;20198;-56
2022/01/31 00:14:43;;;;;;;10.55;2.70;;;20.30;68.40;;;;;;7837636;28;20182;-55
2022/01/31 00:18:28;;;;;;;9.27;3.03;;;20.30;68.40;;;;;;7837212;28;20245;-57
2022/01/31 00:22:14;;;;;;;7.07;2.58;;;20.30;68.50;;;;;;7837504;28;20628;-57
2022/01/31 00:25:59;;;;;;;9.40;2.65;;;20.30;68.50;;;;;;7837948;28;20170;-53
2022/01/31 00:29:45;;;;;;;8.73;2.67;;;20.30;68.60;;;;;;7836983;28;20256;-57
2022/01/31 00:33:30;;;;;;;9.35;2.88;;;20.30;68.70;;;;;;7839487;28;20185;-57
2022/01/31 00:37:16;;;;;;;17.13;2.72;;;20.20;68.60;;;;;;7816090;28;20190;-56
2022/01/31 00:41:01;;;;;;;14.93;2.95;;;20.20;68.50;;;;;;7811193;28;20746;-58
2022/01/31 00:44:53;;;;;;;8.25;2.60;;;20.20;68.60;;;;;;7821929;28;20183;-56
2022/01/31 00:48:45;;;;;;;17.95;2.60;;;20.20;68.60;;;;;;7811207;28;20272;-58
2022/01/31 00:52:31;;;;;;;11.18;2.38;;;20.10;68.50;;;;;;7811680;28;20187;-58
2022/01/31 00:56:16;;;;;;;9.32;2.75;;;20.10;68.50;;;;;;7811366;28;20308;-58
2022/01/31 01:00:05;;;;;;;11.00;2.65;;;20.00;68.70;;;;;;7810777;28;20284;-56
2022/01/31 01:03:51;;;;;;;8.35;2.65;;;20.00;68.50;;;;;;7811116;28;20852;-58
2022/01/31 01:07:37;;;;;;;10.30;2.78;;;19.90;68.40;;;;;;7810754;28;20660;-57
2022/01/31 01:11:22;;;;;;;9.70;2.75;;;19.90;68.60;;;;;;7826258;28;20288;-53
2022/01/31 01:15:09;;;;;;;6.40;2.28;;;19.80;68.50;;;;;;7841751;28;20186;-56
2022/01/31 01:18:54;;;;;;;8.20;2.60;;;19.90;68.20;;;;;;7840955;28;20213;-54
2022/01/31 01:22:40;;;;;;;9.55;2.22;;;19.80;68.40;;;;;;7811548;28;20193;-53
2022/01/31 01:26:25;;;;;;;9.05;2.50;;;19.80;68.40;;;;;;7810664;28;20187;-56
2022/01/31 01:30:13;;;;;;;5.88;2.17;;;19.70;68.20;;;;;;7810229;28;20229;-54
2022/01/31 01:33:59;;;;;;;5.68;2.00;;;19.70;68.30;;;;;;7810478;28;20235;-53
2022/01/31 01:37:44;;;;;;;9.25;2.80;;;19.70;68.30;;;;;;7810121;28;20182;-54
2022/01/31 01:41:30;;;;;;;7.03;3.03;;;19.60;68.30;;;;;;7810184;28;20221;-55
2022/01/31 01:45:15;;;;;;;6.13;2.25;;;19.60;68.40;;;;;;7808820;28;20190;-54
2022/01/31 01:49:01;;;;;;;10.40;2.67;;;19.60;68.40;;;;;;7809508;28;20190;-54
2022/01/31 01:52:47;;;;;;;8.13;2.20;;;19.50;68.30;;;;;;7809754;28;20237;-53
2022/01/31 01:56:32;;;;;;;8.15;2.88;;;19.60;68.50;;;;;;7809530;28;20193;-58
2022/01/31 02:00:25;;;;;;;6.20;2.10;;;19.50;68.40;;;;;;7809167;28;20210;-53
2022/01/31 02:04:11;;;;;;;9.13;2.60;;;19.50;68.40;;;;;;7809421;28;20190;-55
2022/01/31 02:07:56;;;;;;;7.05;2.30;;;19.50;68.20;;;;;;7809096;28;20254;-56
2022/01/31 02:11:42;;;;;;;6.50;2.38;;;19.50;68.40;;;;;;7826693;28;20202;-58
2022/01/31 02:15:27;;;;;;;4.10;1.83;;;19.40;68.30;;;;;;7839944;28;20193;-56
2022/01/31 02:19:15;;;;;;;6.68;2.38;;;19.40;68.40;;;;;;7839562;28;20233;-55
2022/01/31 02:23:04;;;;;;;6.30;2.28;;;19.30;68.40;;;;;;7839931;28;20223;-53
2022/01/31 02:26:50;;;;;;;8.55;2.55;;;19.30;68.40;;;;;;7839950;28;20170;-57
2022/01/31 02:30:35;;;;;;;6.25;2.30;;;19.30;68.40;;;;;;7839651;28;20231;-55
2022/01/31 02:34:21;;;;;;;9.27;2.30;;;19.30;68.50;;;;;;7839959;28;20185;-55
2022/01/31 02:38:06;;;;;;;7.30;2.42;;;19.30;68.40;;;;;;7839413;28;20636;-58
2022/01/31 02:41:52;;;;;;;7.82;2.30;;;19.30;68.50;;;;;;7839562;28;20181;-55
2022/01/31 02:45:37;;;;;;;6.55;2.63;;;19.20;68.40;;;;;;7839120;28;20190;-56
2022/01/31 02:49:27;;;;;;;5.57;2.13;;;19.30;68.40;;;;;;7838857;28;20621;-56
2022/01/31 02:53:20;;;;;;;6.40;2.35;;;19.20;68.40;;;;;;7835825;28;20185;-55
2022/01/31 02:57:06;;;;;;;8.63;2.28;;;19.20;68.40;;;;;;7838731;28;20190;-57
2022/01/31 03:00:53;;;;;;;7.13;2.70;;;19.20;68.40;;;;;;7838401;28;20214;-57
2022/01/31 03:04:38;;;;;;;5.68;2.00;;;19.20;68.40;;;;;;7838607;28;20181;-58
2022/01/31 03:08:24;;;;;;;8.18;2.40;;;19.10;68.30;;;;;;7838212;28;20198;-57
2022/01/31 03:12:10;;;;;;;7.32;2.20;;;19.10;68.10;;;;;;7817115;28;20214;-56
2022/01/31 03:15:56;;;;;;;5.20;1.83;;;19.10;68.30;;;;;;7807605;28;20186;-53
2022/01/31 03:19:42;;;;;;;8.80;2.58;;;19.10;68.30;;;;;;7807185;28;20241;-55
2022/01/31 03:23:28;;;;;;;7.65;2.17;;;19.10;68.40;;;;;;7807586;28;20233;-56
2022/01/31 03:27:14;;;;;;;7.15;2.40;;;19.00;68.30;;;;;;7807212;28;20258;-55
2022/01/31 03:30:59;;;;;;;9.82;2.20;;;19.00;68.30;;;;;;7806961;28;20230;-52
2022/01/31 03:34:45;;;;;;;6.03;1.90;;;19.00;68.30;;;;;;7807149;28;20175;-58
2022/01/31 03:38:30;;;;;;;8.52;2.50;;;19.00;68.30;;;;;;7806724;28;20625;-55
2022/01/31 03:42:18;;;;;;;8.75;2.25;;;19.00;68.30;;;;;;7807062;28;20692;-53
2022/01/31 03:46:04;;;;;;;6.68;2.00;;;19.00;68.30;;;;;;7806884;28;20282;-54
2022/01/31 03:49:50;;;;;;;5.90;2.03;;;19.00;68.20;;;;;;7806673;28;20194;-52
2022/01/31 03:53:36;;;;;;;6.88;1.75;;;18.90;68.20;;;;;;7806878;28;20256;-55
2022/01/31 03:57:21;;;;;;;6.38;2.17;;;18.90;68.20;;;;;;7806810;28;20178;-53
2022/01/31 04:01:07;;;;;;;6.72;2.22;;;18.90;68.20;;;;;;7806453;28;20209;-57
2022/01/31 04:04:52;;;;;;;8.13;2.30;;;18.90;68.20;;;;;;7806781;28;20298;-57
2022/01/31 04:08:38;;;;;;;5.93;1.92;;;18.90;68.20;;;;;;7808963;28;20202;-54
2022/01/31 04:12:23;;;;;;;5.95;2.10;;;18.80;68.10;;;;;;7812682;28;20582;-56
2022/01/31 04:16:08;;;;;;;9.43;2.33;;;18.90;68.30;;;;;;7812596;28;20187;-55
2022/01/31 04:19:54;;;;;;;7.00;2.00;;;18.90;68.20;;;;;;7812101;28;20207;-53
2022/01/31 04:23:40;;;;;;;7.03;2.17;;;18.80;68.20;;;;;;7812290;28;20633;-57
2022/01/31 04:27:28;;;;;;;6.28;2.40;;;18.80;68.20;;;;;;7812107;28;20189;-56
2022/01/31 04:35:07;;;;;;;9.00;2.53;;;18.80;67.70;;;;;;7813085;28;20178;-55
2022/01/31 04:38:53;;;;;;;6.95;2.20;;;18.80;67.70;;;;;;7811567;28;20271;-56
2022/01/31 04:42:39;;;;;;;9.20;2.40;;;18.90;67.80;;;;;;7811875;28;20290;-57
2022/01/31 04:46:25;;;;;;;8.35;2.60;;;18.90;67.70;;;;;;7811873;28;20264;-56
2022/01/31 04:50:10;;;;;;;7.82;2.35;;;18.90;67.40;;;;;;7811226;28;20202;-56
2022/01/31 04:53:56;;;;;;;12.13;2.75;;;18.90;67.10;;;;;;7811390;28;20183;-53
2022/01/31 04:57:41;;;;;;;9.98;2.47;;;18.90;67.00;;;;;;7811099;28;20205;-57
2022/01/31 05:01:27;;;;;;;8.90;2.67;;;18.90;66.50;;;;;;7821093;28;20212;-57
2022/01/31 05:05:13;;;;;;;10.55;2.55;;;19.00;67.10;;;;;;7842167;28;20185;-55
2022/01/31 05:08:58;;;;;;;10.02;2.75;;;18.90;66.00;;;;;;7841533;28;20284;-57
2022/01/31 05:12:44;;;;;;;11.13;2.97;;;18.90;65.90;;;;;;7841951;28;20205;-57
2022/01/31 05:16:30;;;;;;;9.23;2.58;;;18.90;65.70;;;;;;7842053;28;20178;-57
2022/01/31 05:20:15;;;;;;;11.27;2.45;;;18.90;65.80;;;;;;7841378;28;20285;-55
2022/01/31 05:24:02;;;;;;;11.43;2.97;;;18.90;65.70;;;;;;7841420;28;20178;-52
2022/01/31 05:27:48;;;;;;;8.38;2.42;;;18.90;65.60;;;;;;7841109;28;20217;-52
2022/01/31 05:31:33;;;;;;;9.77;3.00;;;19.00;65.60;;;;;;7836527;28;20210;-53
2022/01/31 05:35:19;;;;;;;15.40;2.85;;;19.00;65.60;;;;;;7817635;28;20186;-53
2022/01/31 05:39:05;;;;;;;10.52;2.90;;;19.00;65.70;;;;;;7812691;28;20591;-52
2022/01/31 05:42:50;;;;;;;13.52;2.72;;;19.00;65.50;;;;;;7823158;28;20181;-53
2022/01/31 05:46:35;;;;;;;10.95;2.60;;;19.10;65.50;;;;;;7834734;28;20198;-53
2022/01/31 05:50:21;;;;;;;32.40;4.10;;;19.10;66.10;;;;;;7839314;28;20230;-54
2022/01/31 05:54:07;;;;;;;21.45;3.63;;;19.20;66.20;;;;;;7837000;28;20182;-51
2022/01/31 05:57:52;;;;;;;21.25;2.67;;;19.20;65.20;;;;;;7838914;28;20186;-53
2022/01/31 06:01:39;;;;;;;14.75;3.03;;;19.20;65.40;;;;;;7838197;28;20298;-52
2022/01/31 06:05:25;;;;;;;23.00;3.92;;;19.30;65.50;;;;;;7833820;28;20232;-55
2022/01/31 06:09:11;;;;;;;24.25;3.83;;;19.40;62.20;;;;;;7808140;28;20199;-56
2022/01/31 06:12:56;;;;;;;15.05;3.25;;;19.20;62.70;;;;;;7808281;28;20297;-52
2022/01/31 06:16:42;;;;;;;16.30;3.33;;;19.30;63.80;;;;;;7830891;28;20192;-51
2022/01/31 06:20:28;;;;;;;10.90;3.20;;;19.30;65.80;;;;;;7822913;28;20224;-52
2022/01/31 06:24:15;;;;;;;14.75;3.15;;;19.40;66.60;;;;;;7838975;28;20202;-51
2022/01/31 06:28:00;;;;;;;13.82;2.22;;;19.50;66.50;;;;;;7839023;28;20185;-51
2022/01/31 06:31:46;;;;;;;11.38;3.13;;;19.70;66.60;;;;;;7814952;28;20923;-52
2022/01/31 06:35:32;;;;;;;15.15;2.80;;;19.80;66.40;;;;;;7807526;28;20186;-54
2022/01/31 06:39:17;;;;;;;9.82;3.00;;;19.90;66.40;;;;;;7807752;28;20206;-58
2022/01/31 06:43:02;;;;;;;17.80;2.70;;;20.10;66.20;;;;;;7807319;28;20182;-52
2022/01/31 06:46:48;;;;;;;67.22;3.88;;;20.10;66.00;;;;;;7809496;28;20838;-55
2022/01/31 06:50:34;;;;;;;31.83;3.03;;;20.20;66.10;;;;;;7814277;28;20202;-53
2022/01/31 06:54:19;;;;;;;33.85;3.20;;;20.30;66.00;;;;;;7838293;28;20182;-54
2022/01/31 06:58:05;;;;;;;26.15;4.38;;;20.30;65.90;;;;;;7837322;28;20221;-53
2022/01/31 07:01:50;;;;;;;20.98;3.33;;;20.50;66.80;;;;;;7837432;28;20224;-54
2022/01/31 07:05:36;;;;;;;30.85;3.70;;;20.50;66.00;;;;;;7832451;28;20209;-53
2022/01/31 07:09:22;;;;;;;26.55;2.97;;;20.50;65.70;;;;;;7837481;28;20745;-52
2022/01/31 07:13:14;;;;;;;23.58;3.50;;;20.60;66.00;;;;;;7808740;28;20691;-56
2022/01/31 07:17:05;;;;;;;25.83;3.30;;;20.70;66.00;;;;;;7806795;28;20178;-55
2022/01/31 07:20:52;;;;;;;13.93;2.40;;;20.80;66.00;;;;;;7818497;28;20222;-54
2022/01/31 07:28:24;;;;;;;18.30;3.08;;;21.10;66.00;;;;;;7805807;28;20201;-55
2022/01/31 07:32:10;;;;;;;17.55;3.22;;;21.30;66.00;;;;;;7816254;28;20331;-55
2022/01/31 07:35:56;;;;;;;17.08;2.90;;;21.50;66.00;;;;;;7825793;28;20214;-55
2022/01/31 07:39:43;;;;;;;22.27;3.00;;;21.70;65.90;;;;;;7805909;28;20210;-56
2022/01/31 07:43:30;;;;;;;22.23;4.45;;;21.90;65.80;;;;;;7808695;28;20163;-54
2022/01/31 07:47:16;;;;;;;26.77;3.70;;;22.00;65.60;;;;;;7810608;28;20826;-54
2022/01/31 07:51:01;;;;;;;29.30;3.38;;;22.20;65.30;;;;;;7821182;28;20573;-52
2022/01/31 07:54:47;;;;;;;21.25;3.22;;;22.30;65.10;;;;;;7843516;28;20174;-53
2022/01/31 07:58:33;;;;;;;27.75;2.80;;;22.40;65.10;;;;;;7843003;28;20216;-52
2022/01/31 08:02:19;;;;;;;14.13;2.80;;;22.50;65.00;;;;;;7843069;28;20274;-52
2022/01/31 08:06:05;;;;;;;13.35;2.60;;;22.60;64.80;;;;;;7829560;28;20208;-51
2022/01/31 08:09:51;;;;;;;10.90;2.60;;;22.60;64.70;;;;;;7811601;28;20287;-51
2022/01/31 08:13:38;;;;;;;20.73;3.42;;;22.70;64.70;;;;;;7811833;28;20174;-53
2022/01/31 08:17:24;;;;;;;16.73;3.05;;;22.70;64.70;;;;;;7811538;28;20179;-57
2022/01/31 08:21:12;;;;;;;19.25;2.92;;;22.70;64.70;;;;;;7825278;28;20224;-54
2022/01/31 08:24:57;;;;;;;14.35;3.08;;;22.70;64.70;;;;;;7842496;28;20261;-55
2022/01/31 08:28:45;;;;;;;12.93;2.85;;;22.70;64.90;;;;;;7833135;28;20221;-53
2022/01/31 08:32:43;;;;;;;17.35;2.50;;;22.60;64.90;;;;;;7841967;28;20186;-55
2022/01/31 08:36:34;;;;;;;13.10;2.38;;;22.60;65.20;;;;;;7824958;28;20187;-52
2022/01/31 08:40:19;;;;;;;11.88;2.53;;;22.60;65.60;;;;;;7810329;28;20631;-53
2022/01/31 08:44:05;;;;;;;13.55;2.13;;;22.60;65.90;;;;;;7811765;28;20183;-55
2022/01/31 08:47:51;;;;;;;9.90;2.10;;;22.60;66.10;;;;;;7810233;28;20202;-52
2022/01/31 08:51:37;;;;;;;15.63;3.17;;;22.50;66.30;;;;;;7828942;28;20213;-55
2022/01/31 08:55:24;;;;;;;12.45;2.20;;;22.50;66.60;;;;;;7840540;28;20550;-53
2022/01/31 08:59:13;;;;;;;13.48;3.05;;;22.40;66.80;;;;;;7840377;28;20293;-52
2022/01/31 09:03:06;;;;;;;20.65;2.78;;;22.40;67.10;;;;;;7829904;28;20186;-57
2022/01/31 09:06:51;;;;;;;10.27;2.75;;;22.40;67.30;;;;;;7820239;28;20244;-52
2022/01/31 09:10:37;;;;;;;7.60;2.45;;;22.30;67.40;;;;;;7809407;28;20282;-56
2022/01/31 09:14:22;;;;;;;7.25;2.45;;;22.30;67.60;;;;;;7810256;28;20182;-53
2022/01/31 09:18:08;;;;;;;13.90;2.93;;;22.30;67.70;;;;;;7809335;28;20202;-55
2022/01/31 09:21:53;;;;;;;10.35;2.80;;;22.30;68.90;;;;;;7826571;28;20190;-53
2022/01/31 09:25:44;;;;;;;15.52;2.50;;;22.40;68.40;;;;;;7810031;28;20175;-56
2022/01/31 09:29:30;;;;;;;12.13;2.65;;;22.50;68.50;;;;;;7809833;28;20285;-51
2022/01/31 09:33:16;;;;;;;27.50;4.35;;;22.50;68.50;;;;;;7809404;28;20182;-52
2022/01/31 09:37:02;;;;;;;10.45;3.63;;;22.50;66.90;;;;;;7809617;28;20191;-55
2022/01/31 09:40:48;;;;;;;15.95;2.58;;;22.40;68.70;;;;;;7808972;28;20222;-55
2022/01/31 09:48:56;;;;;;;13.15;2.60;;;22.50;69.10;;;;;;7826404;28;20241;-53
2022/01/31 09:52:42;;;;;;;9.18;2.72;;;22.60;69.20;;;;;;7835566;28;20205;-56
2022/01/31 09:56:37;;;;;;;9.13;2.83;;;22.70;69.20;;;;;;7835601;28;20182;-54
2022/01/31 10:00:33;;;;;;;7.82;2.53;;;22.80;69.10;;;;;;7846711;28;20216;-56
2022/01/31 10:04:24;;;;;;;16.38;2.60;;;22.80;69.10;;;;;;7865308;28;20181;-54
2022/01/31 10:08:14;;;;;;;11.07;2.90;;;22.80;69.30;;;;;;7799961;28;20206;-54
2022/01/31 10:16:24;;;;;;;11.73;2.70;;;22.90;69.50;;;;;;7804267;28;20233;-55
2022/01/31 10:16:32;;;;;;;12.50;2.92;;;22.90;69.60;;;;;;7815229;28;20201;-56
2022/01/31 10:20:31;;;;;;;11.57;2.75;;;22.90;69.60;;;;;;7812815;28;20279;-56
2022/01/31 10:24:17;;;;;;;10.98;2.85;;;22.90;69.60;;;;;;7823867;28;20186;-55
2022/01/31 10:28:11;;;;;;;11.93;3.75;;;22.80;69.40;;;;;;7807739;28;20265;-54
2022/01/31 10:32:01;;;;;;;12.90;2.55;;;22.80;70.10;;;;;;7807714;28;20273;-54
2022/01/31 10:35:47;;;;;;;10.68;2.70;;;22.80;70.60;;;;;;7822085;28;20699;-55
2022/01/31 10:44:18;;;;;;;13.88;2.85;;;22.70;71.40;;;;;;7819162;28;20173;-53
2022/01/31 10:52:08;;;;;;;16.13;8.00;;;22.40;70.90;;;;;;7830848;28;20182;-55
2022/01/31 10:55:55;;;;;;;15.43;8.32;;;22.40;71.20;;;;;;7807586;28;20213;-54
2022/01/31 10:59:46;;;;;;;15.07;7.95;;;22.40;71.60;;;;;;7806591;28;20241;-55
2022/01/31 11:03:33;;;;;;;14.57;7.50;;;22.40;71.70;;;;;;7817615;28;20182;-57
2022/01/31 11:07:20;;;;;;;9.60;5.22;;;22.30;71.40;;;;;;7809096;28;20216;-53
2022/01/31 11:11:06;;;;;;;13.70;7.38;;;22.30;63.90;;;;;;7806161;28;20194;-52
2022/01/31 11:14:54;;;;;;;19.55;6.55;;;22.00;59.70;;;;;;7806861;28;20189;-52
2022/01/31 11:18:42;;;;;;;28.27;6.05;;;21.90;66.90;;;;;;7806583;28;20268;-53
2022/01/31 11:22:36;;;;;;;21.27;6.20;;;21.90;69.80;;;;;;7807521;28;20201;-55
2022/01/31 11:26:23;;;;;;;10.50;5.60;;;22.00;69.80;;;;;;7806312;28;20246;-51
2022/01/31 11:30:10;;;;;;;20.55;5.57;;;22.10;69.70;;;;;;7805883;28;20574;-53
2022/01/31 11:33:58;;;;;;;15.20;5.65;;;22.10;68.80;;;;;;7823744;28;20188;-51
2022/01/31 11:37:43;;;;;;;19.33;6.72;;;22.20;69.50;;;;;;7835835;28;20197;-52
2022/01/31 11:41:29;;;;;;;23.73;5.38;;;22.30;69.30;;;;;;7836660;28;20304;-50
2022/01/31 11:45:24;;;;;;;17.60;5.65;;;22.30;69.10;;;;;;7836772;28;20239;-52
2022/01/31 11:49:13;;;;;;;16.00;5.90;;;22.40;69.00;;;;;;7831731;28;20208;-53
2022/01/31 11:53:01;;;;;;;18.90;5.82;;;22.40;68.80;;;;;;7814623;28;20232;-51
2022/01/31 11:56:53;;;;;;;19.38;5.55;;;22.40;68.80;;;;;;7806036;28;20191;-52
2022/01/31 12:00:40;;;;;;;14.20;5.22;;;22.50;69.00;;;;;;7832879;28;20225;-51
2022/01/31 12:04:32;;;;;;;10.60;5.05;;;22.50;69.10;;;;;;7832587;28;20589;-53
2022/01/31 12:08:21;;;;;;;15.25;5.70;;;22.60;69.20;;;;;;7805608;28;20542;-50
2022/01/31 12:12:34;;;;;;;9.80;4.80;;;22.60;69.30;;;;;;7831392;28;20171;-54
2022/01/31 12:16:42;;;;;;;10.60;5.10;;;22.60;69.50;;;;;;7805643;28;20193;-54
2022/01/31 12:25:29;;;;;;;14.70;4.95;;;22.60;69.50;;;;;;7837173;28;20670;-49
2022/01/31 12:29:18;;;;;;;37.47;5.00;;;22.60;69.50;;;;;;7807177;28;20202;-49
2022/01/31 12:33:04;;;;;;;8.50;4.35;;;22.60;69.50;;;;;;7810876;28;20316;-53
2022/01/31 12:36:57;;;;;;;16.75;4.78;;;22.60;69.50;;;;;;7819922;28;20187;-49
2022/01/31 12:40:50;;;;;;;11.73;4.20;;;22.60;69.40;;;;;;7812226;28;20210;-50
2022/01/31 12:44:36;;;;;;;19.83;4.65;;;22.50;66.80;;;;;;7841719;28;20177;-50
2022/01/31 12:48:23;;;;;;;18.13;4.82;;;22.40;68.70;;;;;;7841550;28;20209;-50
2022/01/31 12:52:10;;;;;;;15.57;4.82;;;22.40;68.60;;;;;;7813858;28;20187;-51
2022/01/31 12:56:22;;;;;;;16.05;4.40;;;22.40;68.50;;;;;;7810594;28;20565;-53
2022/01/31 13:00:08;;;;;;;12.43;4.25;;;22.40;68.80;;;;;;7809677;28;20214;-50
2022/01/31 13:03:57;;;;;;;18.02;4.50;;;22.40;68.80;;;;;;7811037;28;20175;-53
2022/01/31 13:07:43;;;;;;;9.27;4.15;;;22.40;69.10;;;;;;7840913;28;20167;-53
2022/01/31 13:11:28;;;;;;;17.27;4.53;;;22.40;69.10;;;;;;7834220;28;20214;-53
2022/01/31 13:15:32;;;;;;;9.80;4.00;;;22.40;68.80;;;;;;7822993;28;20194;-47
2022/01/31 13:19:20;;;;;;;10.68;3.55;;;22.50;68.70;;;;;;7834706;28;20345;-49
2022/01/31 13:23:06;;;;;;;13.60;3.78;;;22.50;68.40;;;;;;7808098;28;20179;-54
2022/01/31 13:26:56;;;;;;;8.20;3.72;;;22.60;68.60;;;;;;7808636;28;20224;-53
2022/01/31 13:30:41;;;;;;;11.77;4.25;;;22.60;68.40;;;;;;7808927;28;20222;-54
2022/01/31 13:34:40;;;;;;;9.38;3.20;;;22.60;68.20;;;;;;7815501;28;20192;-53
2022/01/31 13:38:26;;;;;;;7.70;3.30;;;22.60;68.10;;;;;;7840355;28;20220;-53
2022/01/31 13:42:23;;;;;;;7.80;3.42;;;22.60;67.90;;;;;;7840337;28;20174;-54
2022/01/31 13:46:24;;;;;;;12.18;3.92;;;22.70;67.80;;;;;;7839922;28;20655;-50
2022/01/31 13:50:38;;;;;;;8.75;3.22;;;22.70;67.70;;;;;;7825848;28;20289;-52
2022/01/31 13:54:24;;;;;;;12.85;3.00;;;22.70;67.50;;;;;;7809051;28;20186;-52
2022/01/31 13:58:10;;;;;;;7.80;2.83;;;22.70;67.80;;;;;;7808273;28;20194;-52
2022/01/31 14:02:14;;;;;;;4.47;2.88;;;22.70;68.00;;;;;;7821072;28;20217;-53
2022/01/31 14:06:03;;;;;;;7.40;3.03;;;22.70;68.00;;;;;;7819278;28;20546;-51
2022/01/31 14:09:48;;;;;;;6.45;2.78;;;22.70;68.10;;;;;;7814038;28;20199;-53
2022/01/31 14:13:36;;;;;;;10.88;3.08;;;22.70;68.10;;;;;;7821599;28;20261;-53
2022/01/31 14:17:25;;;;;;;7.55;3.15;;;22.70;68.50;;;;;;7822861;28;20244;-51
2022/01/31 14:21:11;;;;;;;9.48;3.22;;;22.70;67.80;;;;;;7819556;28;20222;-55
2022/01/31 14:25:06;;;;;;;5.72;2.83;;;22.70;67.80;;;;;;7821688;28;20205;-54
2022/01/31 14:28:55;;;;;;;6.85;3.05;;;22.70;67.90;;;;;;7821020;28;20205;-51
2022/01/31 14:32:40;;;;;;;7.75;2.70;;;22.70;68.10;;;;;;7822239;28;20202;-53
2022/01/31 14:36:32;;;;;;;7.68;2.45;;;22.70;68.00;;;;;;7820605;28;20197;-54
2022/01/31 14:48:34;;;;;;;8.18;2.72;;;22.70;68.40;;;;;;7814201;28;20218;-55
2022/01/31 14:52:19;;;;;;;6.20;1.85;;;22.70;67.80;;;;;;7808243;28;20197;-52
2022/01/31 14:56:05;;;;;;;3.75;2.22;;;22.80;68.00;;;;;;7807055;28;20190;-51
2022/01/31 14:59:50;;;;;;;13.07;2.72;;;22.80;67.90;;;;;;7806607;28;20268;-53
2022/01/31 15:03:37;;;;;;;10.80;3.08;;;22.80;67.70;;;;;;7807131;28;20185;-50
2022/01/31 15:07:23;;;;;;;9.13;2.40;;;22.90;67.50;;;;;;7820772;28;20214;-53
2022/01/31 15:11:11;;;;;;;11.18;2.45;;;22.90;67.60;;;;;;7807370;28;20226;-53
2022/01/31 15:14:57;;;;;;;9.63;2.50;;;23.00;67.50;;;;;;7815044;28;20652;-54
2022/01/31 15:18:43;;;;;;;5.68;2.40;;;23.00;67.40;;;;;;7806844;28;20862;-53
2022/01/31 15:22:28;;;;;;;5.30;2.10;;;23.10;67.20;;;;;;7807410;28;20182;-50
2022/01/31 15:26:17;;;;;;;5.80;2.45;;;23.10;67.30;;;;;;7826683;28;20256;-53
2022/01/31 15:30:06;;;;;;;11.07;2.70;;;23.10;67.10;;;;;;7837314;28;20723;-53
2022/01/31 15:33:53;;;;;;;4.22;2.25;;;23.20;67.10;;;;;;7823143;28;20256;-52
2022/01/31 15:37:39;;;;;;;6.28;2.13;;;23.20;66.80;;;;;;7806751;28;20181;-53
2022/01/31 15:41:24;;;;;;;9.60;2.20;;;23.30;66.70;;;;;;7806954;28;20218;-52
2022/01/31 15:45:10;;;;;;;6.20;2.22;;;23.30;66.50;;;;;;7807292;28;20735;-51
2022/01/31 15:48:55;;;;;;;5.10;1.98;;;23.30;66.40;;;;;;7806745;28;20202;-53
2022/01/31 15:52:41;;;;;;;6.50;2.45;;;23.30;66.40;;;;;;7806899;28;20186;-53
2022/01/31 15:56:26;;;;;;;4.22;1.90;;;23.20;66.40;;;;;;7807042;28;20630;-54
2022/01/31 16:00:14;;;;;;;2.90;2.00;;;23.20;66.20;;;;;;7806382;28;20210;-52
2022/01/31 16:04:00;;;;;;;6.70;1.90;;;23.20;66.20;;;;;;7808490;28;20688;-51
2022/01/31 16:07:45;;;;;;;8.75;2.35;;;23.10;66.10;;;;;;7812756;28;20575;-52
2022/01/31 16:11:32;;;;;;;3.30;2.00;;;23.10;66.10;;;;;;7813198;28;20256;-51
2022/01/31 16:15:17;;;;;;;4.22;2.00;;;23.00;66.00;;;;;;7813015;28;20260;-56
2022/01/31 16:19:03;;;;;;;3.30;1.80;;;23.00;66.00;;;;;;7812399;28;20845;-52
2022/01/31 16:22:48;;;;;;;7.13;1.88;;;23.00;66.10;;;;;;7820329;28;20182;-54
2022/01/31 16:26:34;;;;;;;4.35;1.90;;;22.90;65.90;;;;;;7828947;28;20179;-54
2022/01/31 16:30:21;;;;;;;3.65;1.73;;;22.90;65.70;;;;;;7823707;28;20206;-54
2022/01/31 16:34:07;;;;;;;4.43;2.00;;;22.80;65.90;;;;;;7824684;28;20182;-52
2022/01/31 16:37:52;;;;;;;7.90;1.80;;;22.80;65.90;;;;;;7823469;28;20260;-53
2022/01/31 16:41:38;;;;;;;18.52;2.20;;;22.70;66.10;;;;;;7824452;28;20207;-54
2022/01/31 16:45:24;;;;;;;21.95;2.50;;;22.70;66.10;;;;;;7826314;28;20199;-50
2022/01/31 16:49:10;;;;;;;15.60;2.53;;;22.70;66.10;;;;;;7824904;28;20195;-53
2022/01/31 16:52:58;;;;;;;14.35;2.78;;;22.70;66.30;;;;;;7824143;28;20198;-53
2022/01/31 16:56:46;;;;;;;23.10;2.75;;;22.70;66.30;;;;;;7824400;28;20179;-52
2022/01/31 17:00:32;;;;;;;18.00;2.30;;;22.80;66.20;;;;;;7824329;28;20205;-52
2022/01/31 17:04:18;;;;;;;9.07;2.28;;;22.80;66.10;;;;;;7825918;28;21548;-50
2022/01/31 17:08:06;;;;;;;14.95;2.83;;;22.80;66.10;;;;;;7824955;28;20178;-55
2022/01/31 17:11:51;;;;;;;12.25;2.47;;;22.90;66.00;;;;;;7829722;28;20631;-50
2022/01/31 17:15:38;;;;;;;10.70;2.30;;;22.90;65.90;;;;;;7841463;28;20558;-54
2022/01/31 17:19:26;;;;;;;10.90;2.70;;;23.10;65.70;;;;;;7841301;28;20202;-52
2022/01/31 17:23:11;;;;;;;11.57;2.60;;;23.10;65.50;;;;;;7841676;28;20170;-51
2022/01/31 17:26:57;;;;;;;9.65;2.70;;;23.20;65.50;;;;;;7841357;28;20220;-54
2022/01/31 17:30:42;;;;;;;9.35;2.55;;;23.30;65.30;;;;;;7810993;28;20206;-53
2022/01/31 17:34:28;;;;;;;19.13;3.63;;;23.30;65.20;;;;;;7814254;28;20285;-50
2022/01/31 17:38:13;;;;;;;12.90;3.30;;;23.40;64.90;;;;;;7810794;28;20204;-53
2022/01/31 17:42:02;;;;;;;10.18;4.22;;;23.40;65.00;;;;;;7810221;28;20245;-52
2022/01/31 17:45:48;;;;;;;11.68;4.90;;;23.50;64.80;;;;;;7809639;28;20212;-52
2022/01/31 17:49:33;;;;;;;18.52;5.88;;;23.60;64.70;;;;;;7809466;28;20194;-51
2022/01/31 17:53:20;;;;;;;15.82;5.57;;;23.60;64.60;;;;;;7816292;28;20214;-51
2022/01/31 17:57:05;;;;;;;16.95;6.18;;;23.60;64.50;;;;;;7809519;28;20190;-50
2022/01/31 18:00:51;;;;;;;21.80;5.90;;;23.60;64.50;;;;;;7809485;28;20232;-51
2022/01/31 18:04:37;;;;;;;16.70;6.18;;;23.60;64.60;;;;;;7809248;28;20182;-50
2022/01/31 18:08:23;;;;;;;15.65;6.57;;;23.60;64.70;;;;;;7809035;28;20195;-51
2022/01/31 18:12:09;;;;;;;22.77;6.10;;;23.60;64.70;;;;;;7809246;28;20214;-51
2022/01/31 18:15:55;;;;;;;16.42;5.70;;;23.60;64.70;;;;;;7809087;28;20686;-53
2022/01/31 18:19:40;;;;;;;19.65;6.07;;;23.50;64.80;;;;;;7808710;28;20570;-53
2022/01/31 18:23:26;;;;;;;16.35;6.18;;;23.50;64.90;;;;;;7809182;28;20171;-50
2022/01/31 18:27:11;;;;;;;23.05;6.38;;;23.50;64.80;;;;;;7807949;28;20181;-53
2022/01/31 18:31:01;;;;;;;19.45;6.30;;;23.50;64.90;;;;;;7808211;28;20206;-53
2022/01/31 18:34:46;;;;;;;21.30;6.03;;;23.50;65.10;;;;;;7822775;28;20276;-51
2022/01/31 18:38:32;;;;;;;18.10;5.18;;;23.40;65.00;;;;;;7807892;28;20206;-52
2022/01/31 18:42:18;;;;;;;17.67;5.95;;;23.40;65.10;;;;;;7836698;28;20193;-51
2022/01/31 18:46:03;;;;;;;20.55;6.05;;;23.30;65.30;;;;;;7838020;28;20194;-53
2022/01/31 18:49:54;;;;;;;20.48;6.78;;;23.30;65.70;;;;;;7835705;28;20198;-51
2022/01/31 18:53:40;;;;;;;12.88;5.53;;;23.30;65.80;;;;;;7806955;28;20193;-51
2022/01/31 18:57:26;;;;;;;13.80;4.75;;;23.30;65.80;;;;;;7810598;28;20178;-52
2022/01/31 19:01:11;;;;;;;16.10;5.35;;;23.20;65.90;;;;;;7822458;28;20216;-55
2022/01/31 19:04:57;;;;;;;18.38;6.18;;;23.20;66.10;;;;;;7811025;28;20699;-52
2022/01/31 19:08:43;;;;;;;14.13;5.35;;;23.20;66.10;;;;;;7837618;28;20194;-51
2022/01/31 19:12:42;;;;;;;14.43;5.60;;;23.20;66.20;;;;;;7836689;28;20430;-49
2022/01/31 19:16:30;;;;;;;19.20;4.93;;;23.10;66.10;;;;;;7838259;28;20190;-48
2022/01/31 19:20:16;;;;;;;19.73;5.80;;;23.00;66.30;;;;;;7827110;28;20208;-50
2022/01/31 19:24:03;;;;;;;13.63;5.03;;;23.00;66.40;;;;;;7807105;28;20179;-48
2022/01/31 19:27:48;;;;;;;24.60;5.40;;;23.00;66.40;;;;;;7806702;28;20637;-50
2022/01/31 19:31:35;;;;;;;23.77;5.43;;;22.90;65.80;;;;;;7824708;28;20605;-47
2022/01/31 19:35:20;;;;;;;26.33;6.50;;;22.90;66.00;;;;;;7832830;28;20188;-47
2022/01/31 19:39:40;;;;;;;17.38;5.30;;;22.90;66.00;;;;;;7837107;28;20703;-47
2022/01/31 19:43:18;;;;;;;15.35;5.55;;;22.80;65.70;;;;;;7836583;28;20217;-48
2022/01/31 19:47:04;;;;;;;19.05;5.47;;;22.80;65.70;;;;;;7805732;28;20194;-47
2022/01/31 19:50:52;;;;;;;18.10;5.05;;;22.80;65.90;;;;;;7806593;28;20608;-47
2022/01/31 19:54:39;;;;;;;20.55;5.22;;;22.70;66.10;;;;;;7805588;28;20325;-50
2022/01/31 19:58:30;;;;;;;11.32;5.07;;;22.70;66.30;;;;;;7805650;28;20244;-47
2022/01/31 20:02:15;;;;;;;17.05;5.18;;;22.70;66.40;;;;;;7805896;28;20370;-47
2022/01/31 20:06:01;;;;;;;20.33;4.90;;;22.70;66.20;;;;;;7805754;28;20179;-47
2022/01/31 20:09:47;;;;;;;12.18;4.72;;;22.60;65.80;;;;;;7830360;28;20747;-47